sensor_id;sensor_type;location;lat;lon;timestamp;P1;durP1;ratioP1;P2;durP2;ratioP2
25509;SDS011;13413;52.336;21.200;2022-07-09T00:00:17;5.10;;;2.40;;
25509;SDS011;13413;52.336;21.200;2022-07-09T00:03:37;5.00;;;2.70;;
25509;SDS011;13413;52.336;21.200;2022-07-09T00:06:56;5.10;;;2.30;;
25509;SDS011;13413;52.336;21.200;2022-07-09T00:10:16;3.60;;;2.60;;
25509;SDS011;13413;52.336;21.200;2022-07-09T00:13:36;7.10;;;2.70;;
25509;SDS011;13413;52.336;21.200;2022-07-09T00:16:55;7.20;;;2.90;;
25509;SDS011;13413;52.336;21.200;2022-07-09T00:20:14;5.00;;;2.20;;
25509;SDS011;13413;52.336;21.200;2022-07-09T00:23:34;2.90;;;2.50;;
25509;SDS011;13413;52.336;21.200;2022-07-09T00:26:53;7.30;;;2.90;;
25509;SDS011;13413;52.336;21.200;2022-07-09T00:30:12;4.40;;;2.70;;
25509;SDS011;13413;52.336;21.200;2022-07-09T00:33:32;7.60;;;3.40;;
25509;SDS011;13413;52.336;21.200;2022-07-09T00:36:51;3.10;;;2.40;;
25509;SDS011;13413;52.336;21.200;2022-07-09T00:40:11;5.10;;;2.40;;
25509;SDS011;13413;52.336;21.200;2022-07-09T00:43:30;2.80;;;2.30;;
25509;SDS011;13413;52.336;21.200;2022-07-09T00:46:50;3.40;;;2.30;;
25509;SDS011;13413;52.336;21.200;2022-07-09T00:50:10;5.00;;;2.50;;
25509;SDS011;13413;52.336;21.200;2022-07-09T00:53:30;4.70;;;2.70;;
25509;SDS011;13413;52.336;21.200;2022-07-09T00:56:50;4.10;;;2.70;;
25509;SDS011;13413;52.336;21.200;2022-07-09T01:00:13;4.40;;;2.70;;
25509;SDS011;13413;52.336;21.200;2022-07-09T01:03:32;3.80;;;2.60;;
25509;SDS011;13413;52.336;21.200;2022-07-09T01:06:52;3.90;;;2.50;;
25509;SDS011;13413;52.336;21.200;2022-07-09T01:10:14;10.90;;;2.60;;
25509;SDS011;13413;52.336;21.200;2022-07-09T01:13:33;3.30;;;2.90;;
25509;SDS011;13413;52.336;21.200;2022-07-09T01:16:58;4.20;;;2.60;;
25509;SDS011;13413;52.336;21.200;2022-07-09T01:20:21;2.60;;;2.40;;
25509;SDS011;13413;52.336;21.200;2022-07-09T01:23:41;5.40;;;2.70;;
25509;SDS011;13413;52.336;21.200;2022-07-09T01:27:00;7.80;;;2.90;;
25509;SDS011;13413;52.336;21.200;2022-07-09T01:30:26;4.70;;;3.00;;
25509;SDS011;13413;52.336;21.200;2022-07-09T01:33:47;7.00;;;2.90;;
25509;SDS011;13413;52.336;21.200;2022-07-09T01:37:07;4.70;;;2.70;;
25509;SDS011;13413;52.336;21.200;2022-07-09T01:40:27;3.40;;;3.00;;
25509;SDS011;13413;52.336;21.200;2022-07-09T01:43:46;5.30;;;2.90;;
25509;SDS011;13413;52.336;21.200;2022-07-09T01:47:05;5.00;;;2.70;;
25509;SDS011;13413;52.336;21.200;2022-07-09T01:50:25;6.50;;;2.90;;
25509;SDS011;13413;52.336;21.200;2022-07-09T01:53:44;3.80;;;2.80;;
25509;SDS011;13413;52.336;21.200;2022-07-09T01:57:05;5.50;;;3.20;;
25509;SDS011;13413;52.336;21.200;2022-07-09T02:00:24;4.80;;;2.80;;
25509;SDS011;13413;52.336;21.200;2022-07-09T02:03:44;5.50;;;3.00;;
25509;SDS011;13413;52.336;21.200;2022-07-09T02:07:05;8.40;;;3.20;;
25509;SDS011;13413;52.336;21.200;2022-07-09T02:10:24;3.90;;;3.00;;
25509;SDS011;13413;52.336;21.200;2022-07-09T02:13:44;10.10;;;3.20;;
25509;SDS011;13413;52.336;21.200;2022-07-09T02:17:04;5.30;;;2.90;;
25509;SDS011;13413;52.336;21.200;2022-07-09T02:23:42;5.90;;;3.10;;
25509;SDS011;13413;52.336;21.200;2022-07-09T02:27:03;6.60;;;3.20;;
25509;SDS011;13413;52.336;21.200;2022-07-09T02:30:22;6.80;;;4.10;;
25509;SDS011;13413;52.336;21.200;2022-07-09T02:33:41;5.90;;;3.30;;
25509;SDS011;13413;52.336;21.200;2022-07-09T02:37:01;5.90;;;3.40;;
25509;SDS011;13413;52.336;21.200;2022-07-09T02:40:20;6.50;;;3.80;;
25509;SDS011;13413;52.336;21.200;2022-07-09T02:43:39;7.00;;;4.20;;
25509;SDS011;13413;52.336;21.200;2022-07-09T02:46:58;7.10;;;4.70;;
25509;SDS011;13413;52.336;21.200;2022-07-09T02:50:17;6.50;;;4.00;;
25509;SDS011;13413;52.336;21.200;2022-07-09T02:53:37;11.40;;;4.20;;
25509;SDS011;13413;52.336;21.200;2022-07-09T02:56:56;9.50;;;4.80;;
25509;SDS011;13413;52.336;21.200;2022-07-09T03:00:16;10.70;;;4.90;;
25509;SDS011;13413;52.336;21.200;2022-07-09T03:03:37;9.00;;;4.40;;
25509;SDS011;13413;52.336;21.200;2022-07-09T03:06:57;11.20;;;4.70;;
25509;SDS011;13413;52.336;21.200;2022-07-09T03:10:17;6.00;;;4.70;;
25509;SDS011;13413;52.336;21.200;2022-07-09T03:13:37;9.40;;;4.60;;
25509;SDS011;13413;52.336;21.200;2022-07-09T03:16:56;9.70;;;4.50;;
25509;SDS011;13413;52.336;21.200;2022-07-09T03:20:16;8.60;;;4.40;;
25509;SDS011;13413;52.336;21.200;2022-07-09T03:23:37;9.80;;;5.10;;
25509;SDS011;13413;52.336;21.200;2022-07-09T03:26:58;11.20;;;8.40;;
25509;SDS011;13413;52.336;21.200;2022-07-09T03:30:17;10.90;;;7.20;;
25509;SDS011;13413;52.336;21.200;2022-07-09T03:33:35;11.50;;;6.60;;
25509;SDS011;13413;52.336;21.200;2022-07-09T03:36:55;7.00;;;5.10;;
25509;SDS011;13413;52.336;21.200;2022-07-09T03:40:15;10.70;;;5.90;;
25509;SDS011;13413;52.336;21.200;2022-07-09T03:43:34;8.90;;;6.30;;
25509;SDS011;13413;52.336;21.200;2022-07-09T03:46:54;11.30;;;5.40;;
25509;SDS011;13413;52.336;21.200;2022-07-09T03:50:14;8.30;;;4.60;;
25509;SDS011;13413;52.336;21.200;2022-07-09T03:53:34;11.90;;;4.80;;
25509;SDS011;13413;52.336;21.200;2022-07-09T03:56:53;14.40;;;7.40;;
25509;SDS011;13413;52.336;21.200;2022-07-09T04:00:14;8.70;;;5.90;;
25509;SDS011;13413;52.336;21.200;2022-07-09T04:03:34;12.00;;;5.40;;
25509;SDS011;13413;52.336;21.200;2022-07-09T04:06:54;13.70;;;9.00;;
25509;SDS011;13413;52.336;21.200;2022-07-09T04:10:14;12.50;;;6.10;;
25509;SDS011;13413;52.336;21.200;2022-07-09T04:13:33;7.60;;;5.60;;
25509;SDS011;13413;52.336;21.200;2022-07-09T04:16:52;8.50;;;4.70;;
25509;SDS011;13413;52.336;21.200;2022-07-09T04:20:13;11.20;;;5.90;;
25509;SDS011;13413;52.336;21.200;2022-07-09T04:23:32;14.90;;;9.70;;
25509;SDS011;13413;52.336;21.200;2022-07-09T04:26:51;15.10;;;8.80;;
25509;SDS011;13413;52.336;21.200;2022-07-09T04:30:10;12.80;;;8.10;;
25509;SDS011;13413;52.336;21.200;2022-07-09T04:33:31;10.00;;;7.80;;
25509;SDS011;13413;52.336;21.200;2022-07-09T04:36:51;17.20;;;10.40;;
25509;SDS011;13413;52.336;21.200;2022-07-09T04:40:10;12.40;;;5.90;;
25509;SDS011;13413;52.336;21.200;2022-07-09T04:43:32;10.90;;;5.10;;
25509;SDS011;13413;52.336;21.200;2022-07-09T04:46:50;13.40;;;6.10;;
25509;SDS011;13413;52.336;21.200;2022-07-09T04:50:10;9.40;;;4.70;;
25509;SDS011;13413;52.336;21.200;2022-07-09T04:53:30;15.40;;;6.10;;
25509;SDS011;13413;52.336;21.200;2022-07-09T04:56:49;12.30;;;7.70;;
25509;SDS011;13413;52.336;21.200;2022-07-09T05:00:09;9.90;;;4.90;;
25509;SDS011;13413;52.336;21.200;2022-07-09T05:03:29;14.00;;;5.90;;
25509;SDS011;13413;52.336;21.200;2022-07-09T05:06:48;9.70;;;4.40;;
25509;SDS011;13413;52.336;21.200;2022-07-09T05:10:08;17.20;;;5.70;;
25509;SDS011;13413;52.336;21.200;2022-07-09T05:13:28;14.90;;;6.50;;
25509;SDS011;13413;52.336;21.200;2022-07-09T05:16:48;11.80;;;7.00;;
25509;SDS011;13413;52.336;21.200;2022-07-09T05:20:08;12.90;;;5.40;;
25509;SDS011;13413;52.336;21.200;2022-07-09T05:23:28;6.00;;;5.00;;
25509;SDS011;13413;52.336;21.200;2022-07-09T05:26:49;17.70;;;5.80;;
25509;SDS011;13413;52.336;21.200;2022-07-09T05:30:09;9.20;;;5.00;;
25509;SDS011;13413;52.336;21.200;2022-07-09T05:33:29;12.00;;;5.10;;
25509;SDS011;13413;52.336;21.200;2022-07-09T05:36:49;10.20;;;5.20;;
25509;SDS011;13413;52.336;21.200;2022-07-09T05:40:09;10.40;;;4.30;;
25509;SDS011;13413;52.336;21.200;2022-07-09T05:43:30;12.40;;;4.30;;
25509;SDS011;13413;52.336;21.200;2022-07-09T05:46:49;10.40;;;4.70;;
25509;SDS011;13413;52.336;21.200;2022-07-09T05:50:09;12.60;;;4.70;;
25509;SDS011;13413;52.336;21.200;2022-07-09T05:53:28;10.40;;;4.80;;
25509;SDS011;13413;52.336;21.200;2022-07-09T05:56:48;12.40;;;4.10;;
25509;SDS011;13413;52.336;21.200;2022-07-09T06:00:09;10.30;;;5.00;;
25509;SDS011;13413;52.336;21.200;2022-07-09T06:03:29;10.10;;;4.40;;
25509;SDS011;13413;52.336;21.200;2022-07-09T06:06:49;8.50;;;3.70;;
25509;SDS011;13413;52.336;21.200;2022-07-09T06:10:09;9.30;;;4.20;;
25509;SDS011;13413;52.336;21.200;2022-07-09T06:13:28;12.40;;;4.40;;
25509;SDS011;13413;52.336;21.200;2022-07-09T06:16:47;10.40;;;4.30;;
25509;SDS011;13413;52.336;21.200;2022-07-09T06:20:07;16.10;;;5.60;;
25509;SDS011;13413;52.336;21.200;2022-07-09T06:23:28;10.70;;;4.10;;
25509;SDS011;13413;52.336;21.200;2022-07-09T06:26:48;11.20;;;3.90;;
25509;SDS011;13413;52.336;21.200;2022-07-09T06:30:09;7.70;;;4.10;;
25509;SDS011;13413;52.336;21.200;2022-07-09T06:33:29;12.00;;;4.50;;
25509;SDS011;13413;52.336;21.200;2022-07-09T06:36:49;15.80;;;4.90;;
25509;SDS011;13413;52.336;21.200;2022-07-09T06:43:40;6.60;;;3.50;;
25509;SDS011;13413;52.336;21.200;2022-07-09T06:46:58;6.00;;;3.50;;
25509;SDS011;13413;52.336;21.200;2022-07-09T06:50:18;10.40;;;3.80;;
25509;SDS011;13413;52.336;21.200;2022-07-09T06:53:37;7.90;;;3.70;;
25509;SDS011;13413;52.336;21.200;2022-07-09T06:56:56;7.70;;;3.20;;
25509;SDS011;13413;52.336;21.200;2022-07-09T07:00:15;5.70;;;2.80;;
25509;SDS011;13413;52.336;21.200;2022-07-09T07:03:34;5.50;;;3.10;;
25509;SDS011;13413;52.336;21.200;2022-07-09T07:06:52;7.60;;;2.70;;
25509;SDS011;13413;52.336;21.200;2022-07-09T07:10:12;8.60;;;4.10;;
25509;SDS011;13413;52.336;21.200;2022-07-09T07:13:30;5.40;;;2.10;;
25509;SDS011;13413;52.336;21.200;2022-07-09T07:16:48;12.40;;;7.10;;
25509;SDS011;13413;52.336;21.200;2022-07-09T07:20:09;6.40;;;3.00;;
25509;SDS011;13413;52.336;21.200;2022-07-09T07:23:28;8.30;;;3.80;;
25509;SDS011;13413;52.336;21.200;2022-07-09T07:26:47;8.00;;;3.40;;
25509;SDS011;13413;52.336;21.200;2022-07-09T07:30:07;6.10;;;4.70;;
25509;SDS011;13413;52.336;21.200;2022-07-09T07:33:27;8.30;;;2.90;;
25509;SDS011;13413;52.336;21.200;2022-07-09T07:36:46;8.10;;;3.30;;
25509;SDS011;13413;52.336;21.200;2022-07-09T07:40:06;6.20;;;3.20;;
25509;SDS011;13413;52.336;21.200;2022-07-09T07:43:27;9.10;;;4.40;;
25509;SDS011;13413;52.336;21.200;2022-07-09T07:46:46;5.10;;;3.80;;
25509;SDS011;13413;52.336;21.200;2022-07-09T07:50:07;13.60;;;4.80;;
25509;SDS011;13413;52.336;21.200;2022-07-09T07:53:27;5.50;;;4.80;;
25509;SDS011;13413;52.336;21.200;2022-07-09T07:56:46;4.70;;;4.30;;
25509;SDS011;13413;52.336;21.200;2022-07-09T08:00:06;6.90;;;4.90;;
25509;SDS011;13413;52.336;21.200;2022-07-09T08:03:26;6.70;;;4.60;;
25509;SDS011;13413;52.336;21.200;2022-07-09T08:06:45;7.30;;;4.60;;
25509;SDS011;13413;52.336;21.200;2022-07-09T08:10:05;4.50;;;4.10;;
25509;SDS011;13413;52.336;21.200;2022-07-09T08:13:26;6.10;;;3.90;;
25509;SDS011;13413;52.336;21.200;2022-07-09T08:16:45;4.70;;;3.60;;
25509;SDS011;13413;52.336;21.200;2022-07-09T08:20:06;4.50;;;3.70;;
25509;SDS011;13413;52.336;21.200;2022-07-09T08:23:28;4.50;;;3.70;;
25509;SDS011;13413;52.336;21.200;2022-07-09T08:26:48;3.70;;;3.30;;
25509;SDS011;13413;52.336;21.200;2022-07-09T08:30:08;3.40;;;3.10;;
25509;SDS011;13413;52.336;21.200;2022-07-09T08:36:48;4.40;;;3.00;;
25509;SDS011;13413;52.336;21.200;2022-07-09T08:40:08;3.50;;;3.00;;
25509;SDS011;13413;52.336;21.200;2022-07-09T08:43:28;4.20;;;3.40;;
25509;SDS011;13413;52.336;21.200;2022-07-09T08:46:51;6.40;;;3.50;;
25509;SDS011;13413;52.336;21.200;2022-07-09T08:50:11;6.00;;;3.20;;
25509;SDS011;13413;52.336;21.200;2022-07-09T08:53:31;2.90;;;2.60;;
25509;SDS011;13413;52.336;21.200;2022-07-09T08:56:51;4.40;;;2.20;;
25509;SDS011;13413;52.336;21.200;2022-07-09T09:00:11;3.30;;;2.30;;
25509;SDS011;13413;52.336;21.200;2022-07-09T09:03:31;2.50;;;1.90;;
25509;SDS011;13413;52.336;21.200;2022-07-09T09:06:51;5.60;;;1.80;;
25509;SDS011;13413;52.336;21.200;2022-07-09T09:10:21;1.80;;;1.60;;
25509;SDS011;13413;52.336;21.200;2022-07-09T09:13:41;3.00;;;1.80;;
25509;SDS011;13413;52.336;21.200;2022-07-09T09:17:03;3.20;;;1.80;;
25509;SDS011;13413;52.336;21.200;2022-07-09T09:20:24;5.00;;;2.00;;
25509;SDS011;13413;52.336;21.200;2022-07-09T09:23:43;3.00;;;1.70;;
25509;SDS011;13413;52.336;21.200;2022-07-09T09:27:05;6.70;;;1.90;;
25509;SDS011;13413;52.336;21.200;2022-07-09T09:30:24;3.00;;;2.20;;
25509;SDS011;13413;52.336;21.200;2022-07-09T09:33:46;4.70;;;2.40;;
25509;SDS011;13413;52.336;21.200;2022-07-09T09:37:05;5.60;;;1.80;;
25509;SDS011;13413;52.336;21.200;2022-07-09T09:40:25;4.40;;;1.70;;
25509;SDS011;13413;52.336;21.200;2022-07-09T09:43:45;5.90;;;1.70;;
25509;SDS011;13413;52.336;21.200;2022-07-09T09:47:05;6.30;;;1.40;;
25509;SDS011;13413;52.336;21.200;2022-07-09T09:50:25;2.00;;;1.20;;
25509;SDS011;13413;52.336;21.200;2022-07-09T09:53:45;4.40;;;1.60;;
25509;SDS011;13413;52.336;21.200;2022-07-09T09:57:09;5.10;;;1.70;;
25509;SDS011;13413;52.336;21.200;2022-07-09T10:00:29;1.80;;;1.30;;
25509;SDS011;13413;52.336;21.200;2022-07-09T10:03:50;2.30;;;1.50;;
25509;SDS011;13413;52.336;21.200;2022-07-09T10:07:10;3.20;;;1.40;;
25509;SDS011;13413;52.336;21.200;2022-07-09T10:10:31;3.40;;;2.30;;
25509;SDS011;13413;52.336;21.200;2022-07-09T10:13:51;2.80;;;1.70;;
25509;SDS011;13413;52.336;21.200;2022-07-09T10:17:13;3.70;;;1.70;;
25509;SDS011;13413;52.336;21.200;2022-07-09T10:20:34;3.00;;;1.80;;
25509;SDS011;13413;52.336;21.200;2022-07-09T10:23:53;4.90;;;1.60;;
25509;SDS011;13413;52.336;21.200;2022-07-09T10:27:13;2.60;;;1.70;;
25509;SDS011;13413;52.336;21.200;2022-07-09T10:30:32;2.60;;;1.60;;
25509;SDS011;13413;52.336;21.200;2022-07-09T10:33:55;4.90;;;2.00;;
25509;SDS011;13413;52.336;21.200;2022-07-09T10:37:35;3.40;;;1.80;;
25509;SDS011;13413;52.336;21.200;2022-07-09T10:41:00;3.40;;;1.70;;
25509;SDS011;13413;52.336;21.200;2022-07-09T10:44:27;8.00;;;2.60;;
25509;SDS011;13413;52.336;21.200;2022-07-09T10:51:25;5.10;;;1.60;;
25509;SDS011;13413;52.336;21.200;2022-07-09T10:54:46;8.00;;;3.90;;
25509;SDS011;13413;52.336;21.200;2022-07-09T10:58:15;3.60;;;2.40;;
25509;SDS011;13413;52.336;21.200;2022-07-09T11:01:35;2.40;;;1.90;;
25509;SDS011;13413;52.336;21.200;2022-07-09T11:04:54;5.50;;;1.60;;
25509;SDS011;13413;52.336;21.200;2022-07-09T11:08:13;5.80;;;2.30;;
25509;SDS011;13413;52.336;21.200;2022-07-09T11:11:33;3.80;;;2.00;;
25509;SDS011;13413;52.336;21.200;2022-07-09T11:14:52;3.20;;;1.70;;
25509;SDS011;13413;52.336;21.200;2022-07-09T11:18:11;3.70;;;2.00;;
25509;SDS011;13413;52.336;21.200;2022-07-09T11:21:32;7.60;;;1.90;;
25509;SDS011;13413;52.336;21.200;2022-07-09T11:24:52;5.10;;;2.20;;
25509;SDS011;13413;52.336;21.200;2022-07-09T11:28:19;3.50;;;2.00;;
25509;SDS011;13413;52.336;21.200;2022-07-09T11:31:46;6.80;;;2.00;;
25509;SDS011;13413;52.336;21.200;2022-07-09T11:35:07;3.70;;;2.80;;
25509;SDS011;13413;52.336;21.200;2022-07-09T11:38:26;6.80;;;4.00;;
25509;SDS011;13413;52.336;21.200;2022-07-09T11:41:45;4.60;;;2.30;;
25509;SDS011;13413;52.336;21.200;2022-07-09T11:45:06;5.60;;;2.60;;
25509;SDS011;13413;52.336;21.200;2022-07-09T11:48:26;4.30;;;2.00;;
25509;SDS011;13413;52.336;21.200;2022-07-09T11:51:45;3.00;;;1.70;;
25509;SDS011;13413;52.336;21.200;2022-07-09T11:55:05;3.80;;;2.10;;
25509;SDS011;13413;52.336;21.200;2022-07-09T11:58:25;3.10;;;2.20;;
25509;SDS011;13413;52.336;21.200;2022-07-09T12:01:45;5.60;;;2.30;;
25509;SDS011;13413;52.336;21.200;2022-07-09T12:05:05;2.70;;;1.90;;
25509;SDS011;13413;52.336;21.200;2022-07-09T12:08:28;4.60;;;2.40;;
25509;SDS011;13413;52.336;21.200;2022-07-09T12:11:48;4.20;;;2.10;;
25509;SDS011;13413;52.336;21.200;2022-07-09T12:15:09;5.90;;;3.10;;
25509;SDS011;13413;52.336;21.200;2022-07-09T12:18:28;7.70;;;5.20;;
25509;SDS011;13413;52.336;21.200;2022-07-09T12:21:48;7.60;;;2.30;;
25509;SDS011;13413;52.336;21.200;2022-07-09T12:28:43;6.20;;;3.00;;
25509;SDS011;13413;52.336;21.200;2022-07-09T12:32:03;6.40;;;4.90;;
25509;SDS011;13413;52.336;21.200;2022-07-09T12:35:22;6.50;;;3.30;;
25509;SDS011;13413;52.336;21.200;2022-07-09T12:38:41;6.20;;;3.50;;
25509;SDS011;13413;52.336;21.200;2022-07-09T12:42:00;3.60;;;2.20;;
25509;SDS011;13413;52.336;21.200;2022-07-09T12:45:19;5.50;;;1.90;;
25509;SDS011;13413;52.336;21.200;2022-07-09T12:48:38;3.60;;;1.50;;
25509;SDS011;13413;52.336;21.200;2022-07-09T12:51:57;4.20;;;1.50;;
25509;SDS011;13413;52.336;21.200;2022-07-09T12:55:16;4.00;;;2.20;;
25509;SDS011;13413;52.336;21.200;2022-07-09T12:58:35;4.60;;;1.60;;
25509;SDS011;13413;52.336;21.200;2022-07-09T13:01:55;2.50;;;1.50;;
25509;SDS011;13413;52.336;21.200;2022-07-09T13:05:14;3.70;;;1.60;;
25509;SDS011;13413;52.336;21.200;2022-07-09T13:08:33;3.80;;;2.10;;
25509;SDS011;13413;52.336;21.200;2022-07-09T13:11:52;6.30;;;1.90;;
25509;SDS011;13413;52.336;21.200;2022-07-09T13:15:12;3.40;;;1.70;;
25509;SDS011;13413;52.336;21.200;2022-07-09T13:18:30;2.10;;;1.80;;
25509;SDS011;13413;52.336;21.200;2022-07-09T13:21:50;2.20;;;1.60;;
25509;SDS011;13413;52.336;21.200;2022-07-09T13:25:10;3.00;;;1.90;;
25509;SDS011;13413;52.336;21.200;2022-07-09T13:28:30;7.00;;;2.00;;
25509;SDS011;13413;52.336;21.200;2022-07-09T13:31:50;6.10;;;2.00;;
25509;SDS011;13413;52.336;21.200;2022-07-09T13:35:10;4.80;;;2.40;;
25509;SDS011;13413;52.336;21.200;2022-07-09T13:38:30;8.00;;;2.30;;
25509;SDS011;13413;52.336;21.200;2022-07-09T13:41:50;2.60;;;1.90;;
25509;SDS011;13413;52.336;21.200;2022-07-09T13:45:10;2.40;;;2.10;;
25509;SDS011;13413;52.336;21.200;2022-07-09T13:48:29;5.50;;;2.80;;
25509;SDS011;13413;52.336;21.200;2022-07-09T13:51:49;3.70;;;2.70;;
25509;SDS011;13413;52.336;21.200;2022-07-09T13:55:10;4.70;;;3.00;;
25509;SDS011;13413;52.336;21.200;2022-07-09T13:58:29;3.70;;;3.10;;
25509;SDS011;13413;52.336;21.200;2022-07-09T14:01:48;4.10;;;2.60;;
25509;SDS011;13413;52.336;21.200;2022-07-09T14:05:08;4.50;;;3.20;;
25509;SDS011;13413;52.336;21.200;2022-07-09T14:08:27;6.20;;;3.40;;
25509;SDS011;13413;52.336;21.200;2022-07-09T14:11:47;9.10;;;4.00;;
25509;SDS011;13413;52.336;21.200;2022-07-09T14:15:08;4.30;;;3.10;;
25509;SDS011;13413;52.336;21.200;2022-07-09T14:18:27;7.70;;;4.10;;
25509;SDS011;13413;52.336;21.200;2022-07-09T14:21:47;5.90;;;4.00;;
25509;SDS011;13413;52.336;21.200;2022-07-09T14:25:07;4.60;;;3.60;;
25509;SDS011;13413;52.336;21.200;2022-07-09T14:28:27;6.10;;;4.00;;
25509;SDS011;13413;52.336;21.200;2022-07-09T14:31:50;10.10;;;5.40;;
25509;SDS011;13413;52.336;21.200;2022-07-09T14:35:09;8.50;;;3.70;;
25509;SDS011;13413;52.336;21.200;2022-07-09T14:38:29;4.30;;;3.90;;
25509;SDS011;13413;52.336;21.200;2022-07-09T14:41:50;9.20;;;5.20;;
25509;SDS011;13413;52.336;21.200;2022-07-09T14:45:10;6.40;;;4.10;;
25509;SDS011;13413;52.336;21.200;2022-07-09T14:48:28;6.90;;;3.90;;
25509;SDS011;13413;52.336;21.200;2022-07-09T14:51:48;6.10;;;3.60;;
25509;SDS011;13413;52.336;21.200;2022-07-09T14:55:08;5.80;;;3.50;;
25509;SDS011;13413;52.336;21.200;2022-07-09T14:58:29;3.20;;;2.90;;
25509;SDS011;13413;52.336;21.200;2022-07-09T15:01:48;4.90;;;3.80;;
25509;SDS011;13413;52.336;21.200;2022-07-09T15:05:07;12.70;;;5.30;;
25509;SDS011;13413;52.336;21.200;2022-07-09T15:08:33;10.40;;;5.40;;
25509;SDS011;13413;52.336;21.200;2022-07-09T15:12:12;7.20;;;3.90;;
25509;SDS011;13413;52.336;21.200;2022-07-09T15:15:31;8.10;;;6.10;;
25509;SDS011;13413;52.336;21.200;2022-07-09T15:18:51;8.30;;;4.70;;
25509;SDS011;13413;52.336;21.200;2022-07-09T15:22:11;8.20;;;5.60;;
25509;SDS011;13413;52.336;21.200;2022-07-09T15:25:31;5.20;;;4.30;;
25509;SDS011;13413;52.336;21.200;2022-07-09T15:28:52;8.00;;;4.20;;
25509;SDS011;13413;52.336;21.200;2022-07-09T15:32:12;6.50;;;4.60;;
25509;SDS011;13413;52.336;21.200;2022-07-09T15:35:31;10.30;;;6.80;;
25509;SDS011;13413;52.336;21.200;2022-07-09T15:38:51;21.20;;;8.80;;
25509;SDS011;13413;52.336;21.200;2022-07-09T15:42:10;4.80;;;4.30;;
25509;SDS011;13413;52.336;21.200;2022-07-09T15:45:28;6.10;;;4.30;;
25509;SDS011;13413;52.336;21.200;2022-07-09T15:48:47;4.80;;;3.40;;
25509;SDS011;13413;52.336;21.200;2022-07-09T15:52:07;7.50;;;3.60;;
25509;SDS011;13413;52.336;21.200;2022-07-09T15:55:27;7.20;;;4.30;;
25509;SDS011;13413;52.336;21.200;2022-07-09T15:58:49;6.20;;;4.50;;
25509;SDS011;13413;52.336;21.200;2022-07-09T16:02:08;9.60;;;4.50;;
25509;SDS011;13413;52.336;21.200;2022-07-09T16:05:27;7.30;;;4.50;;
25509;SDS011;13413;52.336;21.200;2022-07-09T16:08:45;5.20;;;3.60;;
25509;SDS011;13413;52.336;21.200;2022-07-09T16:12:04;8.80;;;4.80;;
25509;SDS011;13413;52.336;21.200;2022-07-09T16:15:25;6.70;;;3.60;;
25509;SDS011;13413;52.336;21.200;2022-07-09T16:18:45;6.10;;;3.90;;
25509;SDS011;13413;52.336;21.200;2022-07-09T16:22:05;5.10;;;3.40;;
25509;SDS011;13413;52.336;21.200;2022-07-09T16:25:24;4.20;;;3.50;;
25509;SDS011;13413;52.336;21.200;2022-07-09T16:28:42;7.30;;;3.40;;
25509;SDS011;13413;52.336;21.200;2022-07-09T16:32:02;5.00;;;3.90;;
25509;SDS011;13413;52.336;21.200;2022-07-09T16:35:21;4.50;;;3.40;;
25509;SDS011;13413;52.336;21.200;2022-07-09T16:38:41;8.10;;;3.50;;
25509;SDS011;13413;52.336;21.200;2022-07-09T16:42:02;3.60;;;3.10;;
25509;SDS011;13413;52.336;21.200;2022-07-09T16:45:22;4.40;;;3.30;;
25509;SDS011;13413;52.336;21.200;2022-07-09T16:48:41;4.40;;;3.40;;
25509;SDS011;13413;52.336;21.200;2022-07-09T16:52:03;3.90;;;3.40;;
25509;SDS011;13413;52.336;21.200;2022-07-09T16:55:23;4.20;;;3.40;;
25509;SDS011;13413;52.336;21.200;2022-07-09T16:58:41;9.10;;;4.00;;
25509;SDS011;13413;52.336;21.200;2022-07-09T17:02:02;6.10;;;3.20;;
25509;SDS011;13413;52.336;21.200;2022-07-09T17:05:22;3.80;;;3.30;;
25509;SDS011;13413;52.336;21.200;2022-07-09T17:08:41;5.20;;;3.30;;
25509;SDS011;13413;52.336;21.200;2022-07-09T17:12:01;4.50;;;2.70;;
25509;SDS011;13413;52.336;21.200;2022-07-09T17:15:21;6.00;;;3.30;;
25509;SDS011;13413;52.336;21.200;2022-07-09T17:18:39;5.00;;;3.30;;
25509;SDS011;13413;52.336;21.200;2022-07-09T17:25:31;7.80;;;3.30;;
25509;SDS011;13413;52.336;21.200;2022-07-09T17:28:51;5.90;;;3.30;;
25509;SDS011;13413;52.336;21.200;2022-07-09T17:32:09;8.10;;;4.30;;
25509;SDS011;13413;52.336;21.200;2022-07-09T17:35:29;7.10;;;5.10;;
25509;SDS011;13413;52.336;21.200;2022-07-09T17:38:49;8.30;;;4.60;;
25509;SDS011;13413;52.336;21.200;2022-07-09T17:42:07;7.60;;;4.50;;
25509;SDS011;13413;52.336;21.200;2022-07-09T17:45:26;7.40;;;4.40;;
25509;SDS011;13413;52.336;21.200;2022-07-09T17:48:45;10.70;;;4.20;;
25509;SDS011;13413;52.336;21.200;2022-07-09T17:55:24;6.70;;;3.80;;
25509;SDS011;13413;52.336;21.200;2022-07-09T17:58:42;4.20;;;3.50;;
25509;SDS011;13413;52.336;21.200;2022-07-09T18:02:02;4.30;;;3.30;;
25509;SDS011;13413;52.336;21.200;2022-07-09T18:05:23;7.90;;;4.30;;
25509;SDS011;13413;52.336;21.200;2022-07-09T18:08:42;7.50;;;4.70;;
25509;SDS011;13413;52.336;21.200;2022-07-09T18:12:02;10.50;;;5.20;;
25509;SDS011;13413;52.336;21.200;2022-07-09T18:15:22;10.90;;;5.90;;
25509;SDS011;13413;52.336;21.200;2022-07-09T18:18:41;4.50;;;3.50;;
25509;SDS011;13413;52.336;21.200;2022-07-09T18:22:01;8.90;;;5.80;;
25509;SDS011;13413;52.336;21.200;2022-07-09T18:25:21;6.90;;;5.40;;
25509;SDS011;13413;52.336;21.200;2022-07-09T18:28:40;4.20;;;3.10;;
25509;SDS011;13413;52.336;21.200;2022-07-09T18:31:59;7.90;;;5.10;;
25509;SDS011;13413;52.336;21.200;2022-07-09T18:35:19;9.20;;;5.20;;
25509;SDS011;13413;52.336;21.200;2022-07-09T18:38:39;6.60;;;4.70;;
25509;SDS011;13413;52.336;21.200;2022-07-09T18:41:59;7.70;;;5.20;;
25509;SDS011;13413;52.336;21.200;2022-07-09T18:45:19;6.30;;;3.70;;
25509;SDS011;13413;52.336;21.200;2022-07-09T18:48:38;8.10;;;3.80;;
25509;SDS011;13413;52.336;21.200;2022-07-09T18:51:58;5.10;;;4.10;;
25509;SDS011;13413;52.336;21.200;2022-07-09T18:55:18;4.60;;;3.50;;
25509;SDS011;13413;52.336;21.200;2022-07-09T18:58:38;7.00;;;4.60;;
25509;SDS011;13413;52.336;21.200;2022-07-09T19:01:58;4.70;;;3.60;;
25509;SDS011;13413;52.336;21.200;2022-07-09T19:08:36;6.90;;;3.70;;
25509;SDS011;13413;52.336;21.200;2022-07-09T19:11:56;6.30;;;4.30;;
25509;SDS011;13413;52.336;21.200;2022-07-09T19:15:15;6.80;;;3.90;;
25509;SDS011;13413;52.336;21.200;2022-07-09T19:18:34;8.80;;;4.00;;
25509;SDS011;13413;52.336;21.200;2022-07-09T19:21:53;7.30;;;3.30;;
25509;SDS011;13413;52.336;21.200;2022-07-09T19:25:13;4.90;;;2.80;;
25509;SDS011;13413;52.336;21.200;2022-07-09T19:28:33;3.90;;;3.00;;
25509;SDS011;13413;52.336;21.200;2022-07-09T19:31:52;4.30;;;3.00;;
25509;SDS011;13413;52.336;21.200;2022-07-09T19:35:11;11.00;;;7.40;;
25509;SDS011;13413;52.336;21.200;2022-07-09T19:38:30;15.90;;;10.20;;
25509;SDS011;13413;52.336;21.200;2022-07-09T19:41:49;8.10;;;5.20;;
25509;SDS011;13413;52.336;21.200;2022-07-09T19:45:10;7.80;;;3.20;;
25509;SDS011;13413;52.336;21.200;2022-07-09T19:48:29;4.80;;;3.00;;
25509;SDS011;13413;52.336;21.200;2022-07-09T19:51:48;4.40;;;3.20;;
25509;SDS011;13413;52.336;21.200;2022-07-09T19:55:07;6.60;;;2.70;;
25509;SDS011;13413;52.336;21.200;2022-07-09T19:58:30;3.70;;;2.70;;
25509;SDS011;13413;52.336;21.200;2022-07-09T20:01:50;7.70;;;3.20;;
25509;SDS011;13413;52.336;21.200;2022-07-09T20:05:09;6.20;;;3.30;;
25509;SDS011;13413;52.336;21.200;2022-07-09T20:08:29;5.10;;;3.00;;
25509;SDS011;13413;52.336;21.200;2022-07-09T20:11:49;7.90;;;3.30;;